Time;durP1;ratioP1;P1;durP2;ratioP2;P2;SDS_P1;SDS_P2;PMS_P1;PMS_P2;Temp;Humidity;BMP_temperature;BMP_pressure;BME280_temperature;BME280_humidity;BME280_pressure;Samples;Min_cycle;Max_cycle;Signal;HPM_P1;HPM_P2
2021/12/28 00:01:12;;;;;;;;;;;12.40;51.70;;;;;;5187979;28;19922;-31
2021/12/28 00:03:44;;;;;;;;;;;12.40;51.70;;;;;;5187590;28;19922;-36
2021/12/28 00:06:14;;;;;;;;;;;12.40;51.90;;;;;;5187809;28;19922;-33
2021/12/28 00:08:45;;;;;;;;;;;12.40;51.80;;;;;;5187516;28;19968;-36
2021/12/28 00:11:16;;;;;;;;;;;12.50;52.00;;;;;;5187319;28;19957;-35
2021/12/28 00:13:47;;;;;;;;;;;12.40;52.00;;;;;;5202720;28;19928;-35
2021/12/28 00:18:49;;;;;;;;;;;12.40;51.80;;;;;;5187329;28;20297;-36
2021/12/28 00:21:20;;;;;;;;;;;12.40;52.00;;;;;;5186126;28;19922;-39
2021/12/28 00:23:51;;;;;;;;;;;12.50;52.10;;;;;;5187353;28;20294;-31
2021/12/28 00:26:23;;;;;;;;;;;12.40;52.00;;;;;;5187136;28;19922;-34
2021/12/28 00:28:54;;;;;;;;;;;12.40;52.10;;;;;;5187305;28;19960;-33
2021/12/28 00:31:26;;;;;;;;;;;12.40;52.50;;;;;;5187600;28;19932;-39
2021/12/28 00:33:58;;;;;;;;;;;12.30;52.80;;;;;;5187283;28;19968;-37
2021/12/28 00:36:29;;;;;;;;;;;12.30;54.20;;;;;;5186943;28;19925;-35
2021/12/28 00:39:00;;;;;;;;;;;12.30;55.40;;;;;;5202386;28;19972;-39
2021/12/28 00:41:31;;;;;;;;;;;12.30;55.30;;;;;;5187375;28;20362;-34
2021/12/28 00:44:02;;;;;;;;;;;12.30;55.00;;;;;;5202492;28;20011;-35
2021/12/28 00:46:33;;;;;;;;;;;12.40;54.50;;;;;;5202274;28;20008;-30
2021/12/28 00:49:04;;;;;;;;;;;12.40;54.30;;;;;;5187239;28;19927;-37
2021/12/28 00:51:35;;;;;;;;;;;12.40;54.00;;;;;;5186917;28;20019;-29
2021/12/28 00:54:06;;;;;;;;;;;12.30;53.90;;;;;;5187190;28;19925;-33
2021/12/28 00:56:36;;;;;;;;;;;12.40;53.80;;;;;;5187440;28;19921;-36
2021/12/28 00:59:07;;;;;;;;;;;12.40;53.80;;;;;;5187091;28;19921;-33
2021/12/28 01:01:38;;;;;;;;;;;12.40;53.80;;;;;;5187138;28;19921;-35
2021/12/28 01:04:09;;;;;;;;;;;12.30;53.70;;;;;;5187094;28;20294;-37
2021/12/28 01:06:40;;;;;;;;;;;12.30;53.70;;;;;;5186160;28;20351;-31
2021/12/28 01:09:11;;;;;;;;;;;12.30;53.80;;;;;;5187392;28;19980;-37
2021/12/28 01:11:42;;;;;;;;;;;12.30;53.90;;;;;;5190485;28;19949;-37
2021/12/28 01:14:13;;;;;;;;;;;12.30;53.90;;;;;;5190485;28;20016;-35
2021/12/28 01:16:44;;;;;;;;;;;12.30;54.00;;;;;;5190457;28;20012;-34
2021/12/28 01:19:14;;;;;;;;;;;12.30;54.00;;;;;;5190577;28;19952;-37
2021/12/28 01:21:45;;;;;;;;;;;12.30;54.00;;;;;;5190636;28;20008;-36
2021/12/28 01:24:18;;;;;;;;;;;12.30;54.10;;;;;;5190583;28;19921;-36
2021/12/28 01:26:48;;;;;;;;;;;12.30;54.10;;;;;;5190355;28;19968;-37
2021/12/28 01:29:19;;;;;;;;;;;12.30;54.10;;;;;;5190361;28;19921;-32
2021/12/28 01:31:50;;;;;;;;;;;12.30;54.10;;;;;;5190081;28;20021;-35
2021/12/28 01:34:21;;;;;;;;;;;12.30;54.20;;;;;;5190691;28;20383;-35
2021/12/28 01:36:52;;;;;;;;;;;12.30;54.10;;;;;;5190453;28;20000;-36
2021/12/28 01:39:23;;;;;;;;;;;12.30;54.20;;;;;;5190548;28;19922;-35
2021/12/28 01:41:54;;;;;;;;;;;12.30;54.30;;;;;;5190267;28;19929;-36
2021/12/28 01:44:25;;;;;;;;;;;12.30;54.30;;;;;;5190451;28;19926;-33
2021/12/28 01:46:55;;;;;;;;;;;12.40;54.30;;;;;;5190157;28;19928;-34
2021/12/28 01:49:26;;;;;;;;;;;12.40;54.50;;;;;;5189835;28;20310;-35
2021/12/28 01:51:57;;;;;;;;;;;12.30;54.50;;;;;;5190031;28;19929;-34
2021/12/28 01:54:28;;;;;;;;;;;12.40;54.60;;;;;;5189689;28;20008;-36
2021/12/28 01:56:59;;;;;;;;;;;12.30;54.50;;;;;;5189533;28;20140;-36
2021/12/28 01:59:30;;;;;;;;;;;12.30;54.60;;;;;;5204778;28;20337;-33
2021/12/28 02:02:01;;;;;;;;;;;12.40;54.70;;;;;;5189769;28;20056;-32
2021/12/28 02:04:32;;;;;;;;;;;12.30;54.70;;;;;;5189864;28;20379;-34
2021/12/28 02:07:03;;;;;;;;;;;12.30;54.70;;;;;;5189851;28;19929;-30
2021/12/28 02:09:34;;;;;;;;;;;12.30;54.60;;;;;;5189513;28;19922;-36
2021/12/28 02:12:05;;;;;;;;;;;12.30;54.70;;;;;;5189439;28;20378;-33
2021/12/28 02:14:43;;;;;;;;;;;12.30;54.60;;;;;;5189802;28;19928;-36
2021/12/28 02:17:14;;;;;;;;;;;12.30;54.60;;;;;;5189866;28;19921;-32
2021/12/28 02:19:45;;;;;;;;;;;12.30;54.70;;;;;;5189760;28;20355;-34
2021/12/28 02:22:16;;;;;;;;;;;12.30;54.60;;;;;;5188315;28;20003;-36
2021/12/28 02:24:47;;;;;;;;;;;12.40;54.70;;;;;;5189150;28;19921;-40
2021/12/28 02:27:18;;;;;;;;;;;12.40;54.80;;;;;;5189266;28;19922;-37
2021/12/28 02:29:49;;;;;;;;;;;12.30;54.70;;;;;;5189629;28;20276;-33
2021/12/28 02:32:19;;;;;;;;;;;12.40;54.90;;;;;;5189105;28;19975;-32
2021/12/28 02:34:50;;;;;;;;;;;12.40;54.80;;;;;;5204363;28;19921;-37
2021/12/28 02:37:21;;;;;;;;;;;12.30;54.70;;;;;;5189215;28;20012;-32
2021/12/28 02:39:52;;;;;;;;;;;12.30;54.80;;;;;;5189370;28;19927;-35
2021/12/28 02:42:24;;;;;;;;;;;12.30;54.90;;;;;;5188481;28;20329;-36
2021/12/28 02:44:56;;;;;;;;;;;12.40;54.90;;;;;;5188945;28;20012;-36
2021/12/28 02:47:26;;;;;;;;;;;12.30;54.90;;;;;;5203730;28;19933;-39
2021/12/28 02:49:57;;;;;;;;;;;12.30;55.00;;;;;;5188819;28;20087;-32
2021/12/28 02:52:28;;;;;;;;;;;12.30;55.00;;;;;;5206940;28;20020;-35
2021/12/28 02:54:59;;;;;;;;;;;12.30;55.00;;;;;;5207196;28;19967;-32
2021/12/28 02:57:30;;;;;;;;;;;12.30;55.10;;;;;;5206990;28;19921;-34
2021/12/28 03:00:01;;;;;;;;;;;12.30;55.10;;;;;;5207379;28;19952;-39
2021/12/28 03:02:32;;;;;;;;;;;12.30;55.10;;;;;;5206767;28;19921;-35
2021/12/28 03:05:03;;;;;;;;;;;12.30;55.10;;;;;;5190416;28;19928;-36
2021/12/28 03:07:34;;;;;;;;;;;12.30;55.00;;;;;;5206959;28;19921;-36
2021/12/28 03:10:05;;;;;;;;;;;12.30;55.10;;;;;;5206578;28;19990;-35
2021/12/28 03:12:36;;;;;;;;;;;12.30;55.30;;;;;;5206015;28;20496;-35
2021/12/28 03:15:07;;;;;;;;;;;12.30;55.30;;;;;;5190178;28;19956;-37
2021/12/28 03:17:39;;;;;;;;;;;12.30;55.30;;;;;;5205851;28;19998;-33
2021/12/28 03:20:12;;;;;;;;;;;12.30;55.30;;;;;;5206486;28;19921;-36
2021/12/28 03:22:44;;;;;;;;;;;12.30;55.40;;;;;;5207035;28;19921;-31
2021/12/28 03:25:15;;;;;;;;;;;12.30;55.30;;;;;;5208924;28;19967;-34
2021/12/28 03:27:46;;;;;;;;;;;12.40;55.30;;;;;;5208589;28;20382;-35
2021/12/28 03:30:17;;;;;;;;;;;12.40;55.30;;;;;;5224008;28;19943;-35
2021/12/28 03:32:47;;;;;;;;;;;12.30;55.30;;;;;;5207404;28;19920;-31
2021/12/28 03:35:19;;;;;;;36.93;26.87;;;12.30;55.40;;;;;;5207965;28;19921;-33
2021/12/28 03:37:49;;;;;;;40.40;30.13;;;12.20;55.40;;;;;;5223925;28;20072;-38
2021/12/28 03:40:20;;;;;;;38.13;28.60;;;12.30;55.40;;;;;;5207715;28;20041;-33
2021/12/28 03:42:51;;;;;;;39.13;29.10;;;12.30;55.60;;;;;;5223166;28;20037;-32
2021/12/28 03:45:22;;;;;;;40.07;30.00;;;12.20;55.40;;;;;;5207587;28;20387;-32
2021/12/28 03:47:53;;;;;;;41.90;30.27;;;12.20;55.40;;;;;;5207982;28;20076;-34
2021/12/28 03:50:25;;;;;;;41.00;30.20;;;12.20;55.30;;;;;;5207809;28;20045;-33
2021/12/28 03:52:56;;;;;;;47.70;32.87;;;12.20;55.40;;;;;;5207528;28;20540;-34
2021/12/28 03:55:27;;;;;;;39.73;27.90;;;12.20;55.20;;;;;;5207777;28;20128;-37
2021/12/28 03:58:00;;;;;;;34.20;25.57;;;12.20;55.30;;;;;;5222658;28;20124;-32
2021/12/28 04:00:37;;;;;;;35.30;25.40;;;12.20;55.30;;;;;;5207039;28;20068;-34
2021/12/28 04:03:08;;;;;;;39.40;28.40;;;12.10;55.30;;;;;;5189347;28;20080;-32
2021/12/28 04:05:39;;;;;;;42.20;27.47;;;12.10;55.30;;;;;;5222812;28;20042;-36
2021/12/28 04:08:19;;;;;;;37.83;25.97;;;12.10;55.50;;;;;;5222601;28;20072;-31
2021/12/28 04:11:02;;;;;;;34.97;25.37;;;12.00;55.70;;;;;;5221703;28;20069;-31
2021/12/28 04:13:33;;;;;;;34.73;25.37;;;12.10;57.40;;;;;;5206571;28;20049;-36
2021/12/28 04:16:04;;;;;;;37.77;26.47;;;12.10;58.00;;;;;;5206771;28;20059;-38
2021/12/28 04:18:35;;;;;;;37.07;26.63;;;12.20;58.00;;;;;;5190494;28;20053;-34
2021/12/28 04:21:07;;;;;;;36.53;25.67;;;12.30;57.50;;;;;;5189010;28;20078;-34
2021/12/28 04:23:38;;;;;;;35.67;25.43;;;12.30;56.80;;;;;;5199204;28;20482;-33
2021/12/28 04:26:09;;;;;;;36.73;26.10;;;12.30;56.40;;;;;;5188742;28;20080;-33
2021/12/28 04:28:40;;;;;;;35.20;25.87;;;12.30;56.30;;;;;;5204875;28;20072;-35
2021/12/28 04:31:11;;;;;;;35.40;26.37;;;12.30;56.00;;;;;;5220102;28;20044;-33
2021/12/28 04:33:42;;;;;;;33.25;24.60;;;12.30;56.00;;;;;;5203526;28;20066;-31
2021/12/28 04:36:14;;;;;;;;;;;11.50;55.90;;;;;;5194915;28;20046;-28
2021/12/28 04:38:45;;;;;;;36.17;24.70;;;9.90;58.20;;;;;;5204707;28;20503;-30
2021/12/28 04:41:16;;;;;;;39.37;25.53;;;9.00;59.90;;;;;;5203375;28;20041;-34
2021/12/28 04:43:48;;;;;;;34.13;22.57;;;8.40;61.20;;;;;;5194206;28;20533;-28
2021/12/28 04:46:19;;;;;;;;;;;8.10;62.30;;;;;;5208084;28;20041;-38
2021/12/28 04:48:50;;;;;;;;;;;7.90;62.80;;;;;;5207505;28;20263;-30
2021/12/28 04:51:22;;;;;;;;;;;7.80;63.00;;;;;;5209465;28;20401;-29
2021/12/28 04:53:55;;;;;;;;;;;7.80;63.10;;;;;;5193613;28;19948;-28
2021/12/28 04:56:26;;;;;;;;;;;7.60;63.30;;;;;;5209048;28;19927;-31
2021/12/28 04:58:56;;;;;;;41.30;25.70;;;7.60;63.30;;;;;;5208499;28;19921;-31
2021/12/28 05:01:27;;;;;;;42.90;30.37;;;7.50;63.50;;;;;;5208725;28;20534;-31
2021/12/28 05:03:58;;;;;;;92.20;57.93;;;7.50;63.70;;;;;;5208852;28;20187;-32
2021/12/28 05:06:30;;;;;;;39.90;27.43;;;7.40;64.00;;;;;;5211081;28;20103;-31
2021/12/28 05:09:03;;;;;;;38.07;25.97;;;7.30;64.20;;;;;;5210216;28;20115;-30
2021/12/28 05:11:34;;;;;;;40.28;25.95;;;7.30;64.70;;;;;;5211009;28;20403;-36
2021/12/28 05:14:05;;;;;;;37.07;25.17;;;7.20;64.70;;;;;;5208172;28;20060;-33
2021/12/28 05:16:36;;;;;;;35.13;24.40;;;7.10;65.00;;;;;;5210554;28;20077;-29
2021/12/28 05:19:07;;;;;;;36.80;24.00;;;7.00;65.10;;;;;;5225761;28;20132;-33
2021/12/28 05:21:38;;;;;;;35.27;23.70;;;6.90;65.50;;;;;;5210527;28;20061;-32
2021/12/28 05:24:10;;;;;;;37.80;25.30;;;6.90;65.70;;;;;;5211097;28;20593;-28
2021/12/28 05:26:41;;;;;;;51.93;32.60;;;6.90;65.70;;;;;;5210688;28;20366;-32
2021/12/28 05:29:12;;;;;;;39.50;25.13;;;6.80;66.90;;;;;;5210533;28;20103;-27
2021/12/28 05:31:43;;;;;;;39.23;26.60;;;6.70;66.60;;;;;;5210145;28;20402;-32
2021/12/28 05:34:14;;;;;;;40.70;27.77;;;6.60;66.60;;;;;;5210356;28;20050;-32
2021/12/28 05:36:46;;;;;;;37.07;24.63;;;6.50;67.10;;;;;;5210339;28;20506;-31
2021/12/28 05:39:16;;;;;;;37.03;24.60;;;6.50;67.00;;;;;;5210263;28;20076;-31
2021/12/28 05:41:48;;;;;;;38.17;25.43;;;6.40;67.30;;;;;;5210544;28;20053;-32
2021/12/28 05:44:19;;;;;;;46.07;30.47;;;6.40;67.90;;;;;;5210094;28;20041;-30
2021/12/28 05:46:51;;;;;;;39.30;28.17;;;6.30;67.80;;;;;;5210729;28;20086;-31
2021/12/28 05:49:22;;;;;;;38.80;27.70;;;6.30;67.90;;;;;;5210507;28;20431;-33
2021/12/28 05:51:53;;;;;;;60.37;41.07;;;6.30;68.00;;;;;;5209993;28;20046;-33
2021/12/28 05:54:24;;;;;;;52.80;34.53;;;6.20;68.70;;;;;;5209623;28;20483;-32
2021/12/28 05:56:55;;;;;;;36.23;26.03;;;6.20;68.50;;;;;;5209432;28;20057;-34
2021/12/28 05:59:26;;;;;;;42.17;26.90;;;6.20;68.70;;;;;;5210160;28;20048;-35
2021/12/28 06:01:58;;;;;;;49.50;34.93;;;6.20;69.00;;;;;;5208572;28;20099;-36
2021/12/28 06:04:29;;;;;;;35.27;24.57;;;6.10;68.90;;;;;;5209857;28;20041;-31
2021/12/28 06:07:00;;;;;;;42.40;29.97;;;6.10;68.80;;;;;;5209671;28;20053;-38
2021/12/28 06:09:30;;;;;;;47.47;30.77;;;6.10;69.00;;;;;;5209441;28;20057;-30
2021/12/28 06:12:02;;;;;;;55.97;39.73;;;6.00;69.20;;;;;;5208177;28;20104;-33
2021/12/28 06:14:33;;;;;;;61.87;36.77;;;6.00;69.60;;;;;;5209674;28;20088;-31
2021/12/28 06:17:04;;;;;;;87.00;55.40;;;6.00;69.60;;;;;;5209732;28;20046;-29
2021/12/28 06:19:35;;;;;;;56.10;36.67;;;6.00;69.80;;;;;;5209414;28;20414;-31
2021/12/28 06:22:06;;;;;;;59.53;38.07;;;6.00;69.70;;;;;;5209309;28;20084;-31
2021/12/28 06:24:37;;;;;;;54.27;38.00;;;5.90;69.70;;;;;;5224871;28;20073;-29
2021/12/28 06:27:08;;;;;;;47.73;31.80;;;5.90;69.90;;;;;;5208177;28;20045;-31
2021/12/28 06:29:39;;;;;;;44.73;29.57;;;6.20;70.20;;;;;;5209171;28;20049;-30
2021/12/28 06:32:12;;;;;;;47.73;30.47;;;6.90;69.00;;;;;;5208901;28;20128;-32
2021/12/28 06:34:43;;;;;;;44.53;29.03;;;7.50;67.30;;;;;;5208849;28;20046;-38
2021/12/28 06:37:14;;;;;;;45.80;30.23;;;8.10;65.90;;;;;;5208702;28;20056;-33
2021/12/28 06:39:45;;;;;;;44.40;28.30;;;8.60;65.00;;;;;;5208885;28;20057;-35
2021/12/28 06:42:16;;;;;;;40.93;30.07;;;8.90;64.00;;;;;;5208819;28;20407;-33
2021/12/28 06:44:48;;;;;;;40.20;27.93;;;9.30;63.40;;;;;;5208820;28;20045;-31
2021/12/28 06:47:19;;;;;;;;;;;9.50;62.70;;;;;;5224538;28;20054;-28
2021/12/28 06:49:50;;;;;;;40.00;29.27;;;9.80;62.30;;;;;;5209301;28;19921;-31
2021/12/28 06:52:21;;;;;;;;;;;10.00;62.00;;;;;;5208979;28;20521;-34
2021/12/28 06:54:52;;;;;;;37.60;28.00;;;10.10;61.40;;;;;;5208514;28;19921;-34
2021/12/28 06:57:23;;;;;;;35.50;26.57;;;10.30;61.30;;;;;;5208376;28;20049;-30
2021/12/28 06:59:54;;;;;;;42.87;29.77;;;10.40;61.10;;;;;;5208555;28;20045;-31
2021/12/28 07:02:25;;;;;;;40.87;28.87;;;10.50;60.70;;;;;;5206729;28;20125;-35
2021/12/28 07:04:56;;;;;;;35.93;25.77;;;10.60;60.50;;;;;;5208132;28;20129;-32
2021/12/28 07:07:27;;;;;;;34.77;26.23;;;10.70;60.20;;;;;;5208268;28;20046;-34
2021/12/28 07:09:58;;;;;;;50.50;36.67;;;10.80;60.30;;;;;;5207610;28;20057;-31
2021/12/28 07:12:29;;;;;;;72.13;46.30;;;10.90;60.20;;;;;;5208218;28;20410;-31
2021/12/28 07:15:00;;;;;;;57.50;40.40;;;10.90;60.00;;;;;;5208061;28;20095;-31
2021/12/28 07:17:32;;;;;;;45.83;34.37;;;11.00;59.90;;;;;;5208215;28;20064;-32
2021/12/28 07:20:03;;;;;;;42.13;29.67;;;11.10;60.00;;;;;;5208018;28;20045;-32
2021/12/28 07:22:35;;;;;;;56.33;35.63;;;11.20;60.00;;;;;;5223296;28;20067;-32
2021/12/28 07:25:07;;;;;;;68.03;42.50;;;11.20;60.40;;;;;;5223298;28;20094;-30
2021/12/28 07:27:38;;;;;;;44.60;30.60;;;11.20;60.00;;;;;;5207636;28;20065;-27
2021/12/28 07:30:10;;;;;;;42.53;29.97;;;11.30;59.90;;;;;;5207947;28;20480;-33
2021/12/28 07:32:41;;;;;;;53.40;34.70;;;11.50;59.90;;;;;;5207360;28;20042;-29
2021/12/28 07:35:12;;;;;;;;;;;11.60;59.60;;;;;;5208456;28;19921;-32
2021/12/28 07:37:43;;;;;;;;;;;11.70;59.40;;;;;;5208521;28;20313;-32
2021/12/28 07:40:14;;;;;;;;;;;11.80;59.00;;;;;;5208169;28;19959;-33
2021/12/28 07:42:45;;;;;;;;;;;11.80;59.00;;;;;;5206433;28;19925;-33
2021/12/28 07:45:16;;;;;;;;;;;11.80;58.50;;;;;;5207460;28;19971;-32
2021/12/28 07:47:47;;;;;;;;;;;11.90;58.50;;;;;;5222927;28;20290;-34
2021/12/28 07:50:18;;;;;;;;;;;11.90;58.60;;;;;;5208126;28;19921;-33
2021/12/28 07:52:49;;;;;;;;;;;11.90;58.50;;;;;;5222977;28;20282;-34
2021/12/28 07:55:20;;;;;;;;;;;11.90;58.60;;;;;;5207774;28;19921;-34
2021/12/28 07:57:51;;;;;;;;;;;11.90;58.40;;;;;;5207377;28;20014;-31
2021/12/28 08:00:23;;;;;;;;;;;11.90;58.30;;;;;;5207856;28;19949;-31
2021/12/28 08:02:54;;;;;;;;;;;11.90;58.30;;;;;;5207734;28;19972;-31
2021/12/28 08:05:25;;;;;;;;;;;12.00;58.30;;;;;;5207048;28;19959;-30
2021/12/28 08:07:56;;;;;;;;;;;12.00;58.40;;;;;;5207632;28;20358;-32
2021/12/28 08:10:27;;;;;;;;;;;12.00;58.30;;;;;;5207370;28;20011;-37
2021/12/28 08:12:58;;;;;;;;;;;12.00;58.50;;;;;;5205774;28;20386;-33
2021/12/28 08:15:29;;;;;;;;;;;11.90;58.50;;;;;;5207969;28;19921;-36
2021/12/28 08:18:02;;;;;;;;;;;11.90;58.60;;;;;;5207012;28;19925;-35
2021/12/28 08:20:33;;;;;;;;;;;11.90;58.80;;;;;;5207221;28;19964;-34
2021/12/28 08:23:04;;;;;;;;;;;11.90;58.80;;;;;;5207363;28;20016;-30
2021/12/28 08:25:35;;;;;;;;;;;11.90;58.80;;;;;;5207576;28;20007;-36
2021/12/28 08:28:06;;;;;;;;;;;11.90;58.80;;;;;;5207117;28;19921;-31
2021/12/28 08:30:38;;;;;;;;;;;11.90;59.00;;;;;;5222457;28;20059;-30
2021/12/28 08:33:09;;;;;;;;;;;11.90;59.00;;;;;;5206845;28;19921;-31
2021/12/28 08:35:40;;;;;;;;;;;11.90;59.10;;;;;;5207427;28;20023;-30
2021/12/28 08:38:11;;;;;;;;;;;11.90;59.10;;;;;;5206158;28;19928;-35
2021/12/28 08:40:42;;;;;;;;;;;11.90;59.30;;;;;;5207745;28;19925;-29
2021/12/28 08:43:13;;;;;;;;;;;11.90;59.40;;;;;;5207192;28;19921;-29
2021/12/28 08:45:44;;;;;;;;;;;11.90;59.20;;;;;;5222268;28;19921;-33
2021/12/28 08:48:15;;;;;;;;;;;11.90;59.20;;;;;;5207463;28;19959;-28
2021/12/28 08:50:46;;;;;;;;;;;11.90;59.30;;;;;;5207640;28;20337;-30
2021/12/28 08:53:17;;;;;;;;;;;11.90;59.20;;;;;;5207163;28;19928;-31
2021/12/28 08:55:48;;;;;;;;;;;11.90;59.30;;;;;;5207374;28;20015;-31
2021/12/28 08:58:19;;;;;;;;;;;11.90;59.30;;;;;;5206695;28;20006;-33
2021/12/28 09:00:49;;;;;;;;;;;11.90;59.20;;;;;;5207139;28;19956;-30
2021/12/28 09:03:20;;;;;;;;;;;11.90;59.30;;;;;;5207055;28;19928;-33
2021/12/28 09:05:51;;;;;;;;;;;11.90;59.20;;;;;;5207177;28;20282;-32
2021/12/28 09:08:22;;;;;;;;;;;11.90;59.40;;;;;;5206809;28;20389;-34
2021/12/28 09:10:53;;;;;;;;;;;11.90;59.30;;;;;;5206888;28;19944;-34
2021/12/28 09:13:24;;;;;;;;;;;11.90;59.40;;;;;;5206942;28;19920;-33
2021/12/28 09:15:55;;;;;;;;;;;11.90;59.50;;;;;;5206987;28;19932;-38
2021/12/28 09:18:26;;;;;;;;;;;11.90;59.60;;;;;;5206872;28;20012;-27
2021/12/28 09:20:57;;;;;;;;;;;11.90;59.60;;;;;;5206775;28;20007;-28
2021/12/28 09:23:28;;;;;;;;;;;11.90;59.60;;;;;;5206610;28;19929;-31
2021/12/28 09:25:59;;;;;;;;;;;11.90;59.50;;;;;;5207002;28;19932;-33
2021/12/28 09:28:32;;;;;;;;;;;11.90;59.60;;;;;;5206549;28;20290;-38
2021/12/28 09:31:03;;;;;;;;;;;12.00;59.70;;;;;;5208849;28;19921;-35
2021/12/28 09:33:34;;;;;;;;;;;11.90;59.70;;;;;;5210310;28;19963;-34
2021/12/28 09:36:07;;;;;;;;;;;11.90;59.80;;;;;;5210672;28;19932;-31
2021/12/28 09:38:38;;;;;;;;;;;11.90;59.80;;;;;;5225283;28;19983;-31
2021/12/28 09:41:09;;;;;;;;;;;11.90;59.80;;;;;;5210432;28;19950;-33
2021/12/28 09:43:40;;;;;;;;;;;11.90;59.90;;;;;;5210404;28;19963;-33
2021/12/28 09:46:11;;;;;;;;;;;11.90;59.90;;;;;;5210118;28;19948;-36
2021/12/28 09:48:42;;;;;;;;;;;11.90;60.00;;;;;;5210542;28;19928;-31
2021/12/28 09:51:12;;;;;;;;;;;12.00;60.10;;;;;;5210254;28;19921;-34
2021/12/28 09:53:43;;;;;;;;;;;12.00;60.00;;;;;;5210240;28;19921;-31
2021/12/28 09:56:14;;;;;;;;;;;12.00;60.10;;;;;;5209925;28;19957;-33
2021/12/28 09:58:45;;;;;;;;;;;11.90;60.10;;;;;;5210174;28;20005;-30
2021/12/28 10:01:16;;;;;;;;;;;11.90;60.00;;;;;;5210114;28;19921;-35
2021/12/28 10:03:47;;;;;;;;;;;11.90;60.20;;;;;;5210041;28;20003;-33
2021/12/28 10:06:19;;;;;;;;;;;11.90;60.00;;;;;;5225433;28;20004;-36
2021/12/28 10:09:10;;;;;;;;;;;11.90;60.20;;;;;;5209791;28;20263;-34
2021/12/28 10:11:43;;;;;;;;;;;12.00;60.20;;;;;;5210266;28;20019;-32
2021/12/28 10:14:14;;;;;;;;;;;11.90;60.10;;;;;;5210299;28;20402;-31
2021/12/28 10:16:45;;;;;;;;;;;11.90;60.30;;;;;;5209742;28;19952;-32
2021/12/28 10:19:31;;;;;;;;;;;11.90;60.40;;;;;;5209516;28;20397;-35
2021/12/28 10:22:21;;;;;;;;;;;11.90;60.70;;;;;;5209748;28;19921;-37
2021/12/28 10:24:53;;;;;;;;;;;11.80;60.60;;;;;;5209476;28;19975;-33
2021/12/28 10:27:24;;;;;;;;;;;11.80;60.70;;;;;;5209164;28;19921;-31
2021/12/28 10:30:00;;;;;;;;;;;11.90;60.40;;;;;;5224384;28;19964;-33
2021/12/28 10:32:31;;;;;;;;;;;11.90;61.00;;;;;;5209717;28;19968;-30
2021/12/28 10:35:04;;;;;;;;;;;12.00;60.90;;;;;;5209448;28;20363;-33
2021/12/28 10:37:36;;;;;;;;;;;11.90;60.80;;;;;;5209455;28;19924;-33
2021/12/28 10:40:09;;;;;;;;;;;12.00;61.20;;;;;;5209082;28;19921;-29
2021/12/28 10:42:48;;;;;;;;;;;12.00;61.40;;;;;;5208636;28;19928;-30
2021/12/28 10:45:22;;;;;;;;;;;12.00;61.70;;;;;;5209126;28;20384;-31
2021/12/28 10:47:53;;;;;;;;;;;12.00;61.60;;;;;;5209104;28;19967;-30
2021/12/28 10:50:31;;;;;;;;;;;12.00;61.50;;;;;;5209024;28;19999;-29
2021/12/28 10:53:06;;;;;;;;;;;12.00;61.60;;;;;;5208636;28;19925;-34
2021/12/28 10:55:38;;;;;;;;;;;12.00;61.60;;;;;;5209634;28;20401;-33
2021/12/28 10:58:11;;;;;;;;;;;12.00;61.80;;;;;;5208885;28;19921;-28
2021/12/28 11:00:43;;;;;;;;;;;12.10;61.80;;;;;;5209083;28;19928;-33
2021/12/28 11:03:16;;;;;;;;;;;12.10;61.60;;;;;;5208392;28;19921;-31
2021/12/28 11:05:48;;;;;;;;;;;12.10;61.70;;;;;;5208624;28;19928;-31
2021/12/28 11:08:18;;;;;;;;;;;12.10;61.70;;;;;;5208801;28;19921;-33
2021/12/28 11:10:51;;;;;;;;;;;12.10;61.50;;;;;;5223883;28;19920;-33
2021/12/28 11:13:23;;;;;;;;;;;12.00;61.60;;;;;;5208329;28;19944;-30
2021/12/28 11:15:54;;;;;;;;;;;12.00;62.00;;;;;;5208144;28;20008;-32
2021/12/28 11:18:32;;;;;;;;;;;12.00;61.80;;;;;;5208993;28;20388;-35
2021/12/28 11:21:15;;;;;;;;;;;12.00;61.90;;;;;;5208324;28;19975;-29
2021/12/28 11:23:50;;;;;;;;;;;12.00;62.00;;;;;;5207430;28;20060;-31
2021/12/28 11:26:22;;;;;;;;;;;12.00;62.10;;;;;;5208718;28;19975;-33
2021/12/28 11:28:53;;;;;;;;;;;12.00;62.00;;;;;;5208800;28;19925;-32
2021/12/28 11:31:25;;;;;;;;;;;12.00;62.20;;;;;;5208572;28;19943;-34
2021/12/28 11:33:59;;;;;;;;;;;12.00;62.00;;;;;;5223874;28;19921;-30
2021/12/28 11:36:35;;;;;;;;;;;11.90;62.00;;;;;;5209145;28;19928;-31
2021/12/28 11:39:07;;;;;;;;;;;11.90;62.00;;;;;;5208358;28;19925;-31
2021/12/28 11:41:38;;;;;;;;;;;11.90;62.20;;;;;;5208272;28;19921;-34
2021/12/28 11:44:09;;;;;;;;;;;11.90;62.10;;;;;;5208492;28;19927;-34
2021/12/28 11:46:40;;;;;;;;;;;11.90;62.40;;;;;;5208573;28;20417;-34
2021/12/28 11:49:15;;;;;;;;;;;11.90;62.30;;;;;;5208363;28;19921;-31
2021/12/28 11:51:46;;;;;;;;;;;11.90;62.40;;;;;;5208274;28;19974;-32
2021/12/28 11:54:17;;;;;;;;;;;11.90;62.60;;;;;;5207938;28;20376;-34
2021/12/28 11:56:55;;;;;;;;;;;11.90;62.60;;;;;;5208319;28;19975;-32
2021/12/28 11:59:28;;;;;;;;;;;11.90;62.50;;;;;;5208245;28;19921;-32
2021/12/28 12:02:02;;;;;;;;;;;11.90;62.70;;;;;;5207968;28;20405;-34
2021/12/28 12:04:33;;;;;;;;;;;11.90;62.70;;;;;;5208180;28;20019;-35
2021/12/28 12:07:05;;;;;;;;;;;11.90;62.80;;;;;;5208164;28;20007;-28
2021/12/28 12:09:56;;;;;;;;;;;11.90;62.80;;;;;;5208189;28;19967;-35
2021/12/28 12:12:28;;;;;;;;;;;11.90;62.80;;;;;;5208836;28;19928;-30
2021/12/28 12:15:01;;;;;;;;;;;11.90;62.80;;;;;;5207831;28;19925;-32
2021/12/28 12:17:39;;;;;;;;;;;11.90;63.00;;;;;;5208031;28;19921;-31
2021/12/28 12:20:13;;;;;;;;;;;11.90;63.00;;;;;;5207976;28;19975;-31
2021/12/28 12:22:48;;;;;;;;;;;11.80;62.90;;;;;;5223378;28;19975;-29
2021/12/28 12:25:20;;;;;;;;;;;11.80;63.00;;;;;;5207927;28;19927;-33
2021/12/28 12:27:58;;;;;;;;;;;11.80;62.90;;;;;;5207777;28;19921;-32
2021/12/28 12:30:32;;;;;;;;;;;11.90;63.20;;;;;;5223299;28;19928;-31
2021/12/28 12:33:07;;;;;;;;;;;11.80;63.00;;;;;;5207640;28;19960;-32
2021/12/28 12:35:41;;;;;;;;;;;11.90;63.00;;;;;;5222906;28;19921;-32
2021/12/28 12:38:12;;;;;;;;;;;11.80;63.00;;;;;;5207962;28;19921;-30
2021/12/28 12:41:01;;;;;;;;;;;11.80;63.10;;;;;;5208054;28;19921;-35
2021/12/28 12:43:35;;;;;;;;;;;11.90;63.30;;;;;;5207709;28;19960;-34
2021/12/28 12:46:07;;;;;;;;;;;11.80;63.30;;;;;;5222861;28;19967;-31
2021/12/28 12:48:40;;;;;;;;;;;11.90;63.40;;;;;;5208124;28;19960;-33
2021/12/28 12:51:22;;;;;;;;;;;11.80;63.40;;;;;;5207505;28;20298;-34
2021/12/28 12:54:13;;;;;;;;;;;11.80;63.10;;;;;;5207393;28;20278;-29
2021/12/28 12:56:57;;;;;;;;;;;11.80;63.30;;;;;;5207809;28;19920;-32
2021/12/28 12:59:30;;;;;;;;;;;11.80;63.30;;;;;;5222868;28;19921;-32
2021/12/28 13:02:03;;;;;;;;;;;11.80;63.20;;;;;;5207265;28;19921;-31
2021/12/28 13:04:34;;;;;;;;;;;11.80;63.10;;;;;;5209241;28;19928;-29
2021/12/28 13:07:07;;;;;;;;;;;11.80;63.20;;;;;;5211900;28;19925;-28
2021/12/28 13:09:48;;;;;;;;;;;11.80;63.20;;;;;;5211443;28;19928;-30
2021/12/28 13:12:20;;;;;;;;;;;11.80;63.20;;;;;;5211316;28;19928;-37
2021/12/28 13:14:51;;;;;;;;;;;11.80;63.20;;;;;;5211251;28;20292;-33
2021/12/28 13:17:23;;;;;;;;;;;11.80;63.20;;;;;;5211324;28;19944;-34
2021/12/28 13:20:12;;;;;;;;;;;11.80;63.10;;;;;;5211035;28;19921;-33
2021/12/28 13:22:44;;;;;;;;;;;11.80;63.10;;;;;;5211256;28;19921;-31
2021/12/28 13:25:19;;;;;;;;;;;11.80;63.20;;;;;;5226607;28;20324;-35
2021/12/28 13:27:49;;;;;;;;;;;11.80;63.30;;;;;;5211211;28;19944;-31
2021/12/28 13:30:23;;;;;;;;;;;11.80;64.80;;;;;;5210958;28;20039;-31
2021/12/28 13:32:54;;;;;;;;;;;11.80;63.30;;;;;;5211109;28;19928;-32
2021/12/28 13:35:28;;;;;;;;;;;11.80;63.00;;;;;;5208406;28;19929;-31
2021/12/28 13:38:01;;;;;;;;;;;11.90;63.10;;;;;;5208630;28;19932;-29
2021/12/28 13:40:38;;;;;;;;;;;11.80;62.70;;;;;;5192228;28;19921;-36
2021/12/28 13:43:09;;;;;;;;;;;11.80;62.70;;;;;;5208635;28;20399;-36
2021/12/28 13:45:41;;;;;;;;;;;11.80;62.50;;;;;;5208567;28;20031;-28
2021/12/28 13:48:13;;;;;;;;;;;11.90;62.80;;;;;;5208398;28;19960;-27
2021/12/28 13:50:49;;;;;;;;;;;11.80;62.50;;;;;;5208561;28;20285;-33
2021/12/28 13:53:20;;;;;;;;;;;11.90;63.00;;;;;;5192235;28;19936;-33
2021/12/28 13:55:53;;;;;;;;;;;11.90;62.30;;;;;;5208003;28;20286;-32
2021/12/28 13:58:26;;;;;;;;;;;12.00;62.40;;;;;;5208220;28;20048;-30
2021/12/28 14:01:00;;;;;;;;;;;12.00;62.20;;;;;;5191417;28;19964;-33
2021/12/28 14:03:30;;;;;;;;;;;12.00;62.10;;;;;;5206297;28;20417;-33
2021/12/28 14:06:01;;;;;;;;;;;12.00;62.10;;;;;;5190920;28;20393;-30
2021/12/28 14:08:32;;;;;;;;;;;12.00;62.30;;;;;;5223207;28;19925;-30
2021/12/28 14:11:03;;;;;;;;;;;12.00;62.10;;;;;;5205973;28;20563;-32
2021/12/28 14:13:35;;;;;;;;;;;12.10;62.00;;;;;;5206920;28;19925;-35
2021/12/28 14:16:12;;;;;;;;;;;12.10;61.90;;;;;;5205798;28;19921;-30